Terminal Aerodrome Forecast
Issued by NWS

Home | Current Version | Previous Version | Text Only | Print | Product List | Glossary On
Versions: 1 2 3 4 5 6 7 8 9 10 11 12 13
337
FTPA31 PHFO 252324
TAFHJH
TAF
PHJH 252324Z 2600/2624 06010G15KT P6SM FEW025 SCT050
     FM260500 06009KT P6SM FEW025 SCT050
     FM262000 05014G24KT P6SM FEW025 SCT050
      AMD NOT SKED 2604/2616=

USA.gov is the U.S. government's official web portal to all federal, state and local government web resources and services.